createdAt,value
2018-04-24T00:04:27.634Z,10.30
2018-04-24T00:09:00.866Z,10.50
2018-04-24T00:13:34.126Z,10.50
2018-04-24T00:18:07.315Z,10.50
2018-04-24T00:22:40.503Z,10.50
2018-04-24T00:27:13.681Z,10.30
2018-04-24T00:31:46.848Z,10.30
2018-04-24T00:36:20.041Z,10.30
2018-04-24T00:40:53.234Z,10.30
2018-04-24T00:45:26.418Z,10.20
2018-04-24T00:49:59.612Z,10.20
2018-04-24T00:54:32.825Z,10.20
2018-04-24T00:59:06.042Z,10.20
2018-04-24T01:03:39.234Z,10.10
2018-04-24T01:08:12.421Z,10.10
2018-04-24T01:12:45.606Z,10.00
2018-04-24T01:17:18.790Z,9.90
2018-04-24T01:21:52.474Z,9.70
2018-04-24T01:26:25.628Z,9.70
2018-04-24T01:30:58.814Z,9.50
2018-04-24T01:35:32.022Z,9.60
2018-04-24T01:40:05.203Z,9.50
2018-04-24T01:44:38.394Z,9.50
2018-04-24T01:49:11.593Z,9.60
2018-04-24T01:53:44.745Z,9.60
2018-04-24T01:58:17.934Z,9.50
2018-04-24T02:02:51.095Z,9.40
2018-04-24T02:07:25.100Z,9.20
2018-04-24T02:11:58.246Z,9.20
2018-04-24T02:16:31.431Z,9.20
2018-04-24T02:21:05.380Z,9.00
2018-04-24T02:25:38.574Z,8.90
2018-04-24T02:30:12.531Z,9.00
2018-04-24T02:34:45.725Z,8.90
2018-04-24T02:39:18.940Z,9.10
2018-04-24T02:43:52.139Z,9.20
2018-04-24T02:48:25.349Z,9.20
2018-04-24T02:52:58.542Z,9.10
2018-04-24T02:57:31.702Z,9.10
2018-04-24T03:02:06.411Z,9.10
2018-04-24T03:06:40.441Z,9.10
2018-04-24T03:11:13.632Z,9.10
2018-04-24T03:15:46.823Z,9.00
2018-04-24T03:20:20.010Z,9.10
2018-04-24T03:24:55.189Z,8.80
2018-04-24T03:29:29.309Z,8.80
2018-04-24T03:34:02.667Z,8.80
2018-04-24T03:38:35.850Z,8.90
2018-04-24T03:43:09.048Z,9.00
2018-04-24T03:47:42.231Z,9.10
2018-04-24T03:52:16.254Z,9.00
2018-04-24T03:56:50.264Z,8.90
2018-04-24T04:01:23.445Z,8.90
2018-04-24T04:05:56.626Z,9.00
2018-04-24T04:10:29.818Z,9.10
2018-04-24T04:15:03.064Z,9.10
2018-04-24T04:19:48.126Z,9.20
2018-04-24T04:24:34.008Z,9.40
2018-04-24T04:29:07.241Z,9.30
2018-04-24T04:33:40.467Z,9.30
2018-04-24T04:38:13.660Z,9.10
2018-04-24T04:42:46.846Z,9.00
2018-04-24T04:47:20.117Z,9.00
2018-04-24T04:51:54.078Z,9.10
2018-04-24T04:56:27.293Z,9.10
2018-04-24T05:01:00.555Z,9.20
2018-04-24T05:05:33.754Z,9.30
2018-04-24T05:10:06.946Z,9.40
2018-04-24T05:14:40.296Z,9.60
2018-04-24T05:19:14.303Z,9.70
2018-04-24T05:23:48.235Z,9.80
2018-04-24T05:28:22.190Z,10.00
2018-04-24T05:32:55.391Z,9.90
2018-04-24T05:37:28.673Z,10.10
2018-04-24T05:42:02.634Z,10.30
2018-04-24T05:46:35.825Z,10.20
2018-04-24T05:51:09.034Z,10.60
2018-04-24T05:55:42.218Z,10.90
2018-04-24T06:00:16.232Z,11.30
2018-04-24T06:04:49.422Z,11.20
2018-04-24T06:09:22.622Z,11.40
2018-04-24T06:13:55.782Z,11.60
2018-04-24T06:18:28.982Z,11.90
2018-04-24T06:23:02.191Z,12.30
2018-04-24T06:27:35.353Z,12.50
2018-04-24T06:32:08.547Z,12.60
2018-04-24T06:36:41.799Z,12.70
2018-04-24T06:41:15.834Z,13.00
2018-04-24T06:45:49.019Z,12.90
2018-04-24T06:50:22.982Z,13.20
2018-04-24T06:54:56.260Z,13.20
2018-04-24T06:59:29.394Z,13.40
2018-04-24T07:04:02.590Z,13.60
2018-04-24T07:08:35.795Z,13.70
2018-04-24T07:13:08.955Z,14.00
2018-04-24T07:17:42.959Z,14.20
2018-04-24T07:22:16.248Z,14.20
2018-04-24T07:26:49.388Z,14.20
2018-04-24T07:31:22.605Z,14.40
2018-04-24T07:35:55.811Z,14.80
2018-04-24T07:40:29.011Z,15.30
2018-04-24T07:45:02.170Z,15.60
2018-04-24T07:49:35.362Z,15.80
2018-04-24T07:54:09.646Z,16.30
2018-04-24T07:58:42.835Z,16.30
2018-04-24T08:03:16.021Z,16.70
2018-04-24T08:07:49.300Z,16.80
2018-04-24T08:12:23.223Z,17.20
2018-04-24T08:16:57.174Z,17.60
2018-04-24T08:21:30.415Z,17.50
2018-04-24T08:26:03.597Z,18.00
2018-04-24T08:30:36.799Z,18.60
2018-04-24T08:35:10.114Z,19.30
2018-04-24T08:39:43.281Z,19.70
2018-04-24T08:44:17.234Z,20.60
2018-04-24T08:48:50.421Z,20.50
2018-04-24T08:53:24.375Z,20.90
2018-04-24T08:57:57.563Z,20.90
2018-04-24T09:02:30.747Z,21.90
2018-04-24T09:07:03.938Z,22.60
2018-04-24T09:11:37.890Z,22.80
2018-04-24T09:16:12.682Z,23.70
2018-04-24T09:20:45.842Z,23.60
2018-04-24T09:25:19.047Z,24.50
2018-04-24T09:29:58.014Z,24.70
2018-04-24T09:34:31.400Z,25.20
2018-04-24T09:39:07.351Z,26.70
2018-04-24T09:43:40.497Z,26.50
2018-04-24T09:48:13.707Z,26.50
2018-04-24T09:52:46.899Z,27.20
2018-04-24T09:57:20.089Z,27.20
2018-04-24T10:01:54.090Z,26.90
2018-04-24T10:06:27.282Z,26.80
2018-04-24T10:11:00.470Z,27.70
2018-04-24T10:15:33.638Z,28.00
2018-04-24T10:20:07.596Z,28.70
2018-04-24T10:24:40.782Z,28.60
2018-04-24T10:29:13.966Z,28.70
2018-04-24T10:33:47.937Z,29.10
2018-04-24T10:38:21.404Z,29.10
2018-04-24T10:42:54.611Z,29.80
2018-04-24T10:47:28.554Z,28.30
2018-04-24T10:52:02.970Z,28.10
2018-04-24T10:56:36.217Z,28.80
2018-04-24T11:01:09.420Z,29.30
2018-04-24T11:05:42.610Z,29.60
2018-04-24T11:10:15.903Z,29.70
2018-04-24T11:14:49.950Z,29.80
2018-04-24T11:19:23.146Z,29.70
2018-04-24T11:23:56.459Z,30.00
2018-04-24T11:28:29.701Z,30.80
2018-04-24T11:33:03.435Z,29.90
2018-04-24T11:37:36.627Z,29.90
2018-04-24T11:42:09.882Z,30.00
2018-04-24T11:46:44.336Z,29.10
2018-04-24T11:51:18.875Z,29.40
2018-04-24T11:55:52.078Z,29.30
2018-04-24T12:00:26.028Z,30.60
2018-04-24T12:04:59.229Z,30.60
2018-04-24T12:09:32.394Z,30.00
2018-04-24T12:14:06.364Z,29.20
2018-04-24T12:18:39.523Z,29.20
2018-04-24T12:23:12.718Z,29.40
2018-04-24T12:27:45.883Z,29.80
2018-04-24T12:32:19.082Z,30.10
2018-04-24T12:36:52.263Z,30.40
2018-04-24T12:41:26.215Z,29.10
2018-04-24T12:45:59.402Z,29.00
2018-04-24T12:50:32.600Z,29.50
2018-04-24T12:55:06.523Z,28.30
2018-04-24T12:59:40.942Z,29.20
2018-04-24T13:04:14.129Z,29.10
2018-04-24T13:08:47.321Z,29.10
2018-04-24T13:13:20.518Z,29.10
2018-04-24T13:17:53.886Z,28.70
2018-04-24T13:22:27.108Z,27.70
2018-04-24T13:27:00.296Z,27.80
2018-04-24T13:31:34.246Z,28.30
2018-04-24T13:36:07.529Z,28.20
2018-04-24T13:40:40.791Z,27.90
2018-04-24T13:45:13.975Z,27.70
2018-04-24T13:49:47.164Z,27.20
2018-04-24T13:54:20.861Z,26.60
2018-04-24T13:58:54.112Z,25.40
2018-04-24T14:03:27.272Z,25.60
2018-04-24T14:08:01.390Z,25.20
2018-04-24T14:12:35.353Z,25.60
2018-04-24T14:17:08.511Z,25.50
2018-04-24T14:21:41.704Z,25.50
2018-04-24T14:26:14.953Z,25.20
2018-04-24T14:30:48.914Z,25.30
2018-04-24T14:35:22.388Z,25.20
2018-04-24T14:39:56.413Z,24.90
2018-04-24T14:44:31.052Z,24.90
2018-04-24T14:49:04.362Z,24.90
2018-04-24T14:53:38.321Z,24.80
2018-04-24T14:58:11.513Z,24.80
2018-04-24T15:02:44.703Z,24.40
2018-04-24T15:07:18.663Z,24.00
2018-04-24T15:11:52.008Z,23.90
2018-04-24T15:16:25.663Z,23.90
2018-04-24T15:20:59.057Z,24.00
2018-04-24T15:25:33.236Z,23.90
2018-04-24T15:30:06.569Z,23.80
2018-04-24T15:34:39.787Z,23.70
2018-04-24T15:39:14.470Z,23.70
2018-04-24T15:43:48.839Z,23.60
2018-04-24T15:48:22.033Z,23.50
2018-04-24T15:52:55.213Z,23.40
2018-04-24T15:57:28.402Z,23.50
2018-04-24T16:02:03.045Z,23.20
2018-04-24T16:06:37.372Z,23.10
2018-04-24T16:11:10.613Z,23.10
2018-04-24T16:15:43.769Z,23.20
2018-04-24T16:20:18.461Z,22.90
2018-04-24T16:24:51.679Z,22.90
2018-04-24T16:29:24.865Z,22.90
2018-04-24T16:33:58.104Z,22.70
2018-04-24T16:38:31.533Z,22.60
2018-04-24T16:43:06.577Z,22.40
2018-04-24T16:47:39.737Z,22.40
2018-04-24T16:52:12.930Z,22.30
2018-04-24T16:56:46.882Z,22.10
2018-04-24T17:01:20.070Z,22.00
2018-04-24T17:05:54.053Z,21.70
2018-04-24T17:10:27.233Z,21.60
2018-04-24T17:15:00.941Z,21.60
2018-04-24T17:19:34.126Z,21.50
2018-04-24T17:24:07.318Z,21.40
2018-04-24T17:28:41.282Z,21.10
2018-04-24T17:33:14.483Z,21.00
2018-04-24T17:37:47.648Z,21.00
2018-04-24T17:42:20.847Z,21.00
2018-04-24T17:46:54.025Z,20.80
2018-04-24T17:51:27.347Z,20.70
2018-04-24T17:56:00.543Z,20.50
2018-04-24T18:00:33.913Z,20.30
2018-04-24T18:05:07.100Z,19.80
2018-04-24T18:09:41.839Z,19.00
2018-04-24T18:14:15.002Z,18.90
2018-04-24T18:18:48.190Z,18.80
2018-04-24T18:23:21.367Z,18.60
2018-04-24T18:27:55.319Z,18.00
2018-04-24T18:32:28.530Z,17.90
2018-04-24T18:37:01.688Z,17.80
2018-04-24T18:41:35.634Z,17.70
2018-04-24T18:46:08.802Z,17.60
2018-04-24T18:50:41.998Z,17.60
2018-04-24T18:55:15.198Z,17.50
2018-04-24T18:59:48.390Z,17.20
2018-04-24T19:04:21.551Z,17.00
2018-04-24T19:08:56.186Z,16.50
2018-04-24T19:13:29.387Z,16.30
2018-04-24T19:18:02.597Z,16.30
2018-04-24T19:22:35.785Z,16.10
2018-04-24T19:27:08.946Z,16.00
2018-04-24T19:31:47.818Z,15.90
2018-04-24T19:36:20.986Z,15.70
2018-04-24T19:40:59.799Z,15.70
2018-04-24T19:45:33.741Z,15.40
2018-04-24T19:50:12.600Z,15.30
2018-04-24T19:54:51.450Z,15.30
2018-04-24T19:59:24.639Z,15.20
2018-04-24T20:03:57.877Z,15.10
2018-04-24T20:08:31.390Z,14.90
2018-04-24T20:13:04.570Z,14.80
2018-04-24T20:17:38.020Z,14.50
2018-04-24T20:22:12.005Z,14.00
2018-04-24T20:26:45.206Z,13.90
2018-04-24T20:31:18.411Z,13.80
2018-04-24T20:35:51.590Z,13.90
2018-04-24T20:40:25.729Z,13.80
2018-04-24T20:44:58.956Z,13.70
2018-04-24T20:49:32.195Z,13.60
2018-04-24T20:54:05.354Z,13.50
2018-04-24T20:58:39.334Z,13.20
2018-04-24T21:03:13.393Z,13.20
2018-04-24T21:07:47.389Z,13.30
2018-04-24T21:12:20.585Z,13.20
2018-04-24T21:16:53.782Z,13.30
2018-04-24T21:21:26.994Z,13.20
2018-04-24T21:26:00.688Z,13.10
2018-04-24T21:30:33.890Z,13.10
2018-04-24T21:35:07.191Z,12.90
2018-04-24T21:39:40.596Z,12.80
2018-04-24T21:44:13.887Z,12.70
2018-04-24T21:48:47.914Z,12.40
2018-04-24T21:53:21.877Z,12.40
2018-04-24T21:57:55.074Z,12.40
2018-04-24T22:02:28.352Z,12.50
2018-04-24T22:07:03.066Z,12.40
2018-04-24T22:11:36.258Z,12.40
2018-04-24T22:16:09.471Z,12.20
2018-04-24T22:20:42.638Z,12.00
2018-04-24T22:25:15.872Z,11.90
2018-04-24T22:29:49.099Z,11.70
2018-04-24T22:34:22.299Z,11.60
2018-04-24T22:38:55.494Z,11.70
2018-04-24T22:43:28.692Z,11.80
2018-04-24T22:48:01.891Z,11.80
2018-04-24T22:52:35.098Z,11.80
2018-04-24T22:57:08.270Z,11.70
2018-04-24T23:01:42.234Z,11.60
2018-04-24T23:06:15.430Z,11.50
2018-04-24T23:11:00.572Z,11.50
2018-04-24T23:15:45.649Z,11.40
2018-04-24T23:20:18.342Z,11.30
2018-04-24T23:24:51.556Z,11.30
2018-04-24T23:29:24.746Z,11.00
2018-04-24T23:33:57.978Z,10.90
2018-04-24T23:38:31.213Z,10.90
2018-04-24T23:43:04.406Z,10.80
2018-04-24T23:47:38.424Z,10.90
2018-04-24T23:52:12.366Z,10.80
2018-04-24T23:56:46.334Z,10.80
